Time;durP1;ratioP1;P1;durP2;ratioP2;P2;SDS_P1;SDS_P2;PMS_P1;PMS_P2;Temp;Humidity;BMP_temperature;BMP_pressure;BME280_temperature;BME280_humidity;BME280_pressure;Samples;Min_cycle;Max_cycle;Signal;HPM_P1;HPM_P2
2022/02/18 00:00:50;;;;;;;;;;;;;;;4.70;75.06;97248.08;1667822;85;24517;-84
2022/02/18 00:03:17;;;;;;;;;;;;;;;4.70;75.25;97251.14;1659997;85;20491;-85
2022/02/18 00:05:43;;;;;;;;;;;;;;;4.71;75.41;97250.21;1666923;85;24604;-84
2022/02/18 00:08:09;;;;;;;;;;;;;;;4.65;75.58;97248.84;1666590;85;22012;-84
2022/02/18 00:10:35;;;;;;;;;;;;;;;4.77;75.75;97264.07;1666756;85;26082;-84
2022/02/18 00:13:01;;;;;;;;;;;;;;;4.78;75.88;97263.14;1663804;85;20278;-84
2022/02/18 00:15:27;;;;;;;;;;;;;;;4.80;76.00;97266.48;1665391;85;20225;-84
2022/02/18 00:17:53;;;;;;;;;;;;;;;4.82;76.13;97277.09;1667306;85;24474;-84
2022/02/18 00:20:20;;;;;;;;;;;;;;;4.82;76.22;97271.91;1667449;85;21995;-84
2022/02/18 00:22:46;;;;;;;;;;;;;;;4.86;76.29;97281.60;1669287;85;21208;-84
2022/02/18 00:25:12;;;;;;;;;;;;;;;4.86;76.39;97295.39;1666303;85;24808;-84
2022/02/18 00:27:39;;;;;;;;;;;;;;;4.88;76.50;97297.89;1662987;85;20250;-84
2022/02/18 00:30:06;;;;;;;;;;;;;;;4.88;76.55;97296.60;1670088;85;24551;-83
2022/02/18 00:32:32;;;;;;;;;;;;;;;4.89;76.63;97299.56;1665960;85;22116;-83
2022/02/18 00:34:59;;;;;;;;;;;;;;;4.91;76.70;97305.48;1663211;85;25681;-84
2022/02/18 00:37:25;;;;;;;;;;;;;;;4.90;76.74;97306.41;1666934;85;24470;-84
2022/02/18 00:39:53;;;;;;;;;;;;;;;4.90;76.78;97316.78;1659195;85;20275;-84
2022/02/18 00:42:19;;;;;;;;;;;;;;;4.90;76.82;97321.51;1686291;83;24571;-84
2022/02/18 00:44:46;;;;;;;;;;;;;;;4.88;76.86;97322.52;1688646;83;22073;-84
2022/02/18 00:47:13;;;;;;;;;;;;;;;4.88;76.91;97323.81;1684145;84;26051;-84
2022/02/18 00:49:40;;;;;;;;;;;;;;;4.86;76.98;97320.02;1689799;84;25239;-84
2022/02/18 00:52:09;;;;;;;;;;;;;;;4.85;77.05;97321.44;1696441;83;20438;-84
2022/02/18 00:54:35;;;;;;;;;;;;;;;4.85;77.15;97324.03;1676099;83;24233;-84
2022/02/18 00:57:01;;;;;;;;;;;;;;;4.83;77.27;97327.17;1674577;84;21979;-87
2022/02/18 00:59:27;;;;;;;;;;;;;;;4.83;77.42;97333.19;1671671;84;25955;-86
2022/02/18 01:01:54;;;;;;;;;;;;;;;4.82;77.57;97337.17;1680673;84;24640;-87
2022/02/18 01:04:20;;;;;;;;;;;;;;;4.81;77.75;97344.58;1685537;84;20225;-87
2022/02/18 01:06:46;;;;;;;;;;;;;;;4.80;77.91;97341.64;1683749;84;24576;-86
2022/02/18 01:09:12;;;;;;;;;;;;;;;4.77;78.08;97353.48;1680450;84;22093;-87
2022/02/18 01:11:38;;;;;;;;;;;;;;;4.74;78.22;97357.11;1676811;84;21208;-87
2022/02/18 01:14:07;;;;;;;;;;;;;;;4.70;78.37;97353.03;1690903;84;24683;-86
2022/02/18 01:16:34;;;;;;;;;;;;;;;4.65;78.50;97365.45;1678696;84;20308;-86
2022/02/18 01:19:00;;;;;;;;;;;;;;;4.61;78.64;97367.41;1689222;84;24551;-86
2022/02/18 01:21:30;;;;;;;;;;;;;;;4.57;78.79;97371.14;1682668;84;22031;-86
2022/02/18 01:23:54;;;;;;;;;;;;;;;4.53;78.93;97373.53;1679585;83;25797;-85
2022/02/18 01:26:24;;;;;;;;;;;;;;;4.49;79.11;97373.36;1677458;84;24510;-86
2022/02/18 01:28:50;;;;;;;;;;;;;;;4.46;79.28;97380.04;1683696;84;20483;-86
2022/02/18 01:31:16;;;;;;;;;;;;;;;4.45;79.48;97383.55;1678785;84;24479;-86
2022/02/18 01:33:42;;;;;;;;;;;;;;;4.42;79.68;97386.31;1681743;84;21953;-85
2022/02/18 01:36:08;;;;;;;;;;;;;;;4.41;79.88;97384.67;1679373;83;25959;-83
2022/02/18 01:38:34;;;;;;;;;;;;;;;4.39;80.07;97380.05;1673173;84;24656;-83
2022/02/18 01:41:01;;;;;;;;;;;;;;;4.36;80.30;97386.72;1681762;84;20237;-82
2022/02/18 01:43:27;;;;;;;;;;;;;;;4.35;80.50;97379.87;1685868;84;25326;-83
2022/02/18 01:45:53;;;;;;;;;;;;;;;4.34;80.76;97382.09;1678905;84;20317;-87
2022/02/18 01:48:19;;;;;;;;;;;;;;;4.33;81.00;97388.19;1685970;84;26038;-86
2022/02/18 01:50:45;;;;;;;;;;;;;;;4.33;81.23;97398.55;1681771;84;24447;-86
2022/02/18 01:53:12;;;;;;;;;;;;;;;4.30;81.47;97398.75;1682152;84;20324;-81
2022/02/18 01:55:38;;;;;;;;;;;;;;;4.29;81.70;97400.97;1675186;84;24547;-81
2022/02/18 01:58:04;;;;;;;;;;;;;;;4.27;81.89;97400.22;1675313;84;22046;-82
2022/02/18 02:00:31;;;;;;;;;;;;;;;4.27;82.08;97407.98;1678109;84;26134;-81
2022/02/18 02:02:58;;;;;;;;;;;;;;;4.27;82.32;97404.55;1694181;83;24538;-82
2022/02/18 02:05:24;;;;;;;;;;;;;;;4.26;82.52;97405.02;1677032;84;20171;-84
2022/02/18 02:07:51;;;;;;;;;;;;;;;4.27;82.74;97413.62;1678882;84;24627;-85
2022/02/18 02:10:17;;;;;;;;;;;;;;;4.26;82.95;97418.42;1677059;84;22002;-85
2022/02/18 02:12:50;;;;;;;;;;;;;;;4.26;83.15;97413.24;1676245;84;26013;-85
2022/02/18 02:15:13;;;;;;;;;;;;;;;4.26;83.35;97417.13;1674223;84;25354;-85
2022/02/18 02:17:39;;;;;;;;;;;;;;;4.25;83.54;97428.44;1684745;84;20593;-84
2022/02/18 02:20:07;;;;;;;;;;;;;;;4.22;83.73;97432.03;1670050;85;24598;-85
2022/02/18 02:22:33;;;;;;;;;;;;;;;4.21;83.91;97427.31;1681299;84;22152;-85
2022/02/18 02:24:59;;;;;;;;;;;;;;;4.21;84.10;97431.20;1662648;85;26582;-85
2022/02/18 02:27:30;;;;;;;;;;;;;;;4.19;84.26;97437.41;1675783;84;25219;-84
2022/02/18 02:30:04;;;;;;;;;;;;;;;4.17;84.42;97450.90;1684777;84;20178;-84
2022/02/18 02:32:30;;;;;;;;;;;;;;;4.14;84.57;97447.21;1662229;85;25154;-84
2022/02/18 02:34:56;;;;;;;;;;;;;;;4.11;84.73;97455.98;1691702;84;22100;-86
2022/02/18 02:37:27;;;;;;;;;;;;;;;4.09;84.90;97451.84;1685513;84;25950;-82
2022/02/18 02:39:51;;;;;;;;;;;;;;;4.08;85.11;97448.87;1682782;84;24429;-82
2022/02/18 02:42:17;;;;;;;;;;;;;;;4.06;85.30;97448.95;1680317;84;20228;-81
2022/02/18 02:44:43;;;;;;;;;;;;;;;4.06;85.49;97458.02;1675678;84;24611;-82
2022/02/18 02:47:09;;;;;;;;;;;;;;;4.04;85.64;97457.72;1686236;84;22102;-81
2022/02/18 02:49:35;;;;;;;;;;;;;;;4.02;85.83;97458.29;1663804;84;26045;-81
2022/02/18 02:52:01;;;;;;;;;;;;;;;4.01;85.99;97457.91;1660554;85;24431;-81
2022/02/18 02:54:27;;;;;;;;;;;;;;;3.99;86.16;97462.34;1662561;85;20265;-81
2022/02/18 02:56:55;;;;;;;;;;;;;;;3.97;86.32;97462.91;1670711;85;24535;-81
2022/02/18 02:59:21;;;;;;;;;;;;;;;3.92;86.44;97452.00;1662053;85;22041;-81
2022/02/18 03:01:47;;;;;;;;;;;;;;;3.96;86.62;97459.48;1655939;85;26195;-82
2022/02/18 03:04:13;;;;;;;;;;;;;;;3.95;86.77;97457.81;1666869;84;24601;-81
2022/02/18 03:06:39;;;;;;;;;;;;;;;3.93;86.87;97469.20;1680666;84;20251;-82
2022/02/18 03:09:07;;;;;;;;;;;;;;;3.91;86.97;97479.63;1668585;84;24382;-82
2022/02/18 03:11:33;;;;;;;;;;;;;;;3.88;87.04;97475.07;1684817;83;22248;-82
2022/02/18 03:13:59;;;;;;;;;;;;;;;3.87;87.12;97474.73;1672028;84;26102;-82
2022/02/18 03:16:26;;;;;;;;;;;;;;;3.84;87.23;97483.94;1676358;84;24524;-83
2022/02/18 03:18:52;;;;;;;;;;;;;;;3.81;87.32;97481.09;1683485;83;20311;-82
2022/02/18 03:21:18;;;;;;;;;;;;;;;3.79;87.40;97486.80;1679843;84;24385;-82
2022/02/18 03:23:46;;;;;;;;;;;;;;;3.76;87.48;97495.56;1674725;84;22001;-82
2022/02/18 03:26:13;;;;;;;;;;;;;;;3.76;87.58;97492.97;1683547;84;26652;-81
2022/02/18 03:28:40;;;;;;;;;;;;;;;3.74;87.65;97487.08;1679328;85;24606;-82
2022/02/18 03:31:08;;;;;;;;;;;;;;;3.74;87.75;97489.66;1676985;84;20542;-82
2022/02/18 03:33:36;;;;;;;;;;;;;;;3.73;87.82;97491.87;1673365;84;24571;-82
2022/02/18 03:36:03;;;;;;;;;;;;;;;3.71;87.83;97496.29;1667440;84;21733;-82
2022/02/18 03:38:29;;;;;;;;;;;;;;;3.67;87.82;97499.14;1672773;84;26056;-82
2022/02/18 03:40:55;;;;;;;;;;;;;;;3.64;87.87;97509.23;1674244;84;24394;-82
2022/02/18 03:43:21;;;;;;;;;;;;;;;3.60;87.88;97506.41;1658186;84;20230;-82
2022/02/18 03:45:51;;;;;;;;;;;;;;;3.58;87.90;97510.86;1653520;84;20235;-82
2022/02/18 03:48:15;;;;;;;;;;;;;;;3.57;87.93;97517.41;1659086;83;22070;-82
2022/02/18 03:50:41;;;;;;;;;;;;;;;3.53;87.95;97518.50;1658648;84;25965;-82
2022/02/18 03:53:07;;;;;;;;;;;;;;;3.52;88.02;97527.18;1641977;86;24433;-82
2022/02/18 03:55:34;;;;;;;;;;;;;;;3.48;88.04;97532.16;1640284;86;20273;-82
2022/02/18 03:58:00;;;;;;;;;;;;;;;3.46;88.09;97537.41;1633489;86;24625;-82
2022/02/18 04:00:26;;;;;;;;;;;;;;;3.44;88.16;97535.36;1676791;85;22085;-82
2022/02/18 04:02:52;;;;;;;;;;;;;;;3.42;88.25;97534.62;1673249;84;25968;-81
2022/02/18 04:05:19;;;;;;;;;;;;;;;3.43;88.35;97541.47;1678375;84;24489;-82
2022/02/18 04:07:45;;;;;;;;;;;;;;;3.43;88.47;97538.89;1676952;85;20237;-82
2022/02/18 04:10:11;;;;;;;;;;;;;;;3.44;88.60;97541.82;1682443;85;24611;-82
2022/02/18 04:12:37;;;;;;;;;;;;;;;3.46;88.71;97549.50;1678017;85;22063;-82
2022/02/18 04:15:04;;;;;;;;;;;;;;;3.45;88.80;97547.37;1674954;85;26201;-82
2022/02/18 04:17:32;;;;;;;;;;;;;;;3.45;88.93;97551.25;1654852;85;24582;-82
2022/02/18 04:19:58;;;;;;;;;;;;;;;3.47;89.04;97549.88;1678682;85;20596;-82
2022/02/18 04:22:25;;;;;;;;;;;;;;;3.47;89.12;97558.48;1681473;85;24718;-82
2022/02/18 04:24:51;;;;;;;;;;;;;;;3.46;89.16;97566.31;1679640;85;22109;-82
2022/02/18 04:27:17;;;;;;;;;;;;;;;3.45;89.22;97562.05;1680933;85;25851;-82
2022/02/18 04:29:43;;;;;;;;;;;;;;;3.46;89.29;97568.90;1680218;84;24667;-82
2022/02/18 04:32:10;;;;;;;;;;;;;;;3.45;89.33;97563.34;1678710;84;20327;-82
2022/02/18 04:34:36;;;;;;;;;;;;;;;3.43;89.36;97561.33;1680782;85;24524;-82
2022/02/18 04:37:02;;;;;;;;;;;;;;;3.42;89.42;97566.95;1678315;85;21951;-82
2022/02/18 04:39:28;;;;;;;;;;;;;;;3.42;89.44;97568.70;1679320;84;25938;-82
2022/02/18 04:41:54;;;;;;;;;;;;;;;3.41;89.51;97575.63;1681156;84;24496;-82
2022/02/18 04:44:27;;;;;;;;;;;;;;;3.40;89.53;97570.07;1684757;84;20167;-82
2022/02/18 04:46:53;;;;;;;;;;;;;;;3.41;89.56;97579.50;1684407;84;24720;-82
2022/02/18 04:49:19;;;;;;;;;;;;;;;3.40;89.55;97578.28;1682905;84;22092;-83
2022/02/18 04:51:45;;;;;;;;;;;;;;;3.38;89.51;97573.22;1682872;84;26020;-82
2022/02/18 04:54:11;;;;;;;;;;;;;;;3.38;89.50;97564.17;1679598;84;20272;-83
2022/02/18 04:56:37;;;;;;;;;;;;;;;3.40;89.50;97558.44;1685044;84;20188;-82
2022/02/18 04:59:03;;;;;;;;;;;;;;;3.39;89.46;97554.17;1682951;84;24450;-82
2022/02/18 05:01:29;;;;;;;;;;;;;;;3.38;89.42;97556.41;1683676;84;22021;-82
2022/02/18 05:03:56;;;;;;;;;;;;;;;3.41;89.39;97560.56;1683279;84;26566;-83
2022/02/18 05:06:22;;;;;;;;;;;;;;;3.40;89.34;97559.73;1685525;84;24483;-82
2022/02/18 05:08:48;;;;;;;;;;;;;;;3.39;89.25;97563.22;1684208;84;20220;-82
2022/02/18 05:11:15;;;;;;;;;;;;;;;3.38;89.19;97554.28;1681137;84;24611;-83
2022/02/18 05:13:41;;;;;;;;;;;;;;;3.38;89.13;97552.53;1680613;84;21553;-82
2022/02/18 05:16:08;;;;;;;;;;;;;;;3.38;89.08;97550.41;1685055;84;26669;-82
2022/02/18 05:18:36;;;;;;;;;;;;;;;3.35;89.01;97550.94;1682265;84;24691;-82
2022/02/18 05:21:02;;;;;;;;;;;;;;;3.33;88.94;97553.22;1680961;84;20275;-82
2022/02/18 05:23:29;;;;;;;;;;;;;;;3.30;88.86;97549.52;1684630;84;25277;-82
2022/02/18 05:25:55;;;;;;;;;;;;;;;3.30;88.83;97554.23;1679503;84;21967;-82
2022/02/18 05:28:21;;;;;;;;;;;;;;;3.29;88.77;97554.30;1680834;84;25974;-82
2022/02/18 05:30:48;;;;;;;;;;;;;;;3.27;88.75;97561.33;1682958;84;24461;-82
2022/02/18 05:33:14;;;;;;;;;;;;;;;3.25;88.70;97562.70;1670832;84;20301;-82
2022/02/18 05:35:40;;;;;;;;;;;;;;;3.24;88.67;97567.95;1675606;84;24617;-82
2022/02/18 05:38:06;;;;;;;;;;;;;;;3.22;88.68;97573.64;1672689;84;21999;-82
2022/02/18 05:40:43;;;;;;;;;;;;;;;3.21;88.72;97586.23;1672536;83;26021;-82
2022/02/18 05:43:09;;;;;;;;;;;;;;;3.19;88.74;97592.77;1668575;84;24952;-82
2022/02/18 05:45:35;;;;;;;;;;;;;;;3.19;88.82;97598.39;1673249;84;20161;-82
2022/02/18 05:48:01;;;;;;;;;;;;;;;3.18;88.92;97601.88;1673122;84;20271;-82
2022/02/18 05:50:27;;;;;;;;;;;;;;;3.20;89.08;97598.31;1686441;84;21922;-83
2022/02/18 05:52:54;;;;;;;;;;;;;;;3.23;89.24;97603.77;1662886;84;26064;-82
2022/02/18 05:55:20;;;;;;;;;;;;;;;3.24;89.42;97608.02;1673156;84;24502;-82
2022/02/18 05:57:46;;;;;;;;;;;;;;;3.28;89.62;97621.16;1670026;83;20178;-82
2022/02/18 06:00:17;;;;;;;;;;;;;;;3.28;89.77;97612.10;1672855;84;24578;-82
2022/02/18 06:02:44;;;;;;;;;;;;;;;3.29;89.94;97615.07;1675265;84;22045;-82
2022/02/18 06:05:10;;;;;;;;;;;;;;;3.31;90.10;97617.97;1687211;84;21145;-82
2022/02/18 06:07:36;;;;;;;;;;;;;;;3.34;90.28;97619.53;1669814;84;24525;-82
2022/02/18 06:10:03;;;;;;;;;;;;;;;3.36;90.43;97627.59;1675772;84;20545;-82
2022/02/18 06:12:29;;;;;;;;;;;;;;;3.39;90.55;97627.88;1686391;84;24524;-81
2022/02/18 06:14:55;;;;;;;;;;;;;;;3.40;90.66;97626.97;1677470;84;22026;-82
2022/02/18 06:17:21;;;;;;;;;;;;;;;3.42;90.76;97632.90;1681030;84;26048;-82
2022/02/18 06:19:47;;;;;;;;;;;;;;;3.45;90.84;97628.00;1672892;84;24412;-81
2022/02/18 06:22:14;;;;;;;;;;;;;;;3.45;90.92;97630.13;1668962;84;20283;-81
2022/02/18 06:24:40;;;;;;;;;;;;;;;3.46;90.99;97634.85;1679337;84;24562;-81
2022/02/18 06:27:06;;;;;;;;;;;;;;;3.49;91.04;97645.05;1673888;84;21970;-82
2022/02/18 06:29:33;;;;;;;;;;;;;;;3.48;91.13;97646.80;1680503;84;25962;-82
2022/02/18 06:31:59;;;;;;;;;;;;;;;3.50;91.17;97651.41;1667120;84;24119;-82
2022/02/18 06:34:28;;;;;;;;;;;;;;;3.51;91.25;97647.91;1682795;84;20341;-82
2022/02/18 06:36:54;;;;;;;;;;;;;;;3.51;91.28;97654.37;1674192;84;24605;-83
2022/02/18 06:39:20;;;;;;;;;;;;;;;3.52;91.35;97657.80;1676092;84;20301;-82
2022/02/18 06:41:47;;;;;;;;;;;;;;;3.54;91.42;97661.16;1677813;84;27369;-84
2022/02/18 06:44:14;;;;;;;;;;;;;;;3.55;91.50;97665.38;1684814;84;25387;-83
2022/02/18 06:46:41;;;;;;;;;;;;;;;3.57;91.57;97664.39;1688393;84;20219;-81
2022/02/18 06:49:07;;;;;;;;;;;;;;;3.59;91.69;97670.33;1675958;84;24569;-82
2022/02/18 06:51:34;;;;;;;;;;;;;;;3.62;91.76;97671.45;1681349;83;22114;-82
2022/02/18 06:54:00;;;;;;;;;;;;;;;3.65;91.87;97673.88;1679399;83;26982;-82
2022/02/18 06:56:26;;;;;;;;;;;;;;;3.68;91.93;97681.92;1684838;84;20252;-82
2022/02/18 06:58:55;;;;;;;;;;;;;;;3.72;92.02;97679.08;1682661;84;20483;-83
2022/02/18 07:01:21;;;;;;;;;;;;;;;3.75;92.08;97675.50;1679940;84;25574;-82
2022/02/18 07:03:52;;;;;;;;;;;;;;;3.79;92.17;97686.89;1670778;84;22704;-82
2022/02/18 07:06:15;;;;;;;;;;;;;;;3.82;92.19;97681.19;1677287;83;26175;-82
2022/02/18 07:08:41;;;;;;;;;;;;;;;3.85;92.21;97681.00;1676804;84;24775;-82
2022/02/18 07:11:07;;;;;;;;;;;;;;;3.89;92.22;97685.09;1671477;84;20174;-82
2022/02/18 07:13:33;;;;;;;;;;;;;;;3.93;92.23;97674.96;1693360;84;24511;-82
2022/02/18 07:15:59;;;;;;;;;;;;;;;3.97;92.26;97675.16;1687362;84;22009;-82
2022/02/18 07:18:26;;;;;;;;;;;;;;;3.98;92.25;97678.13;1676244;84;25957;-82
2022/02/18 07:20:53;;;;;;;;;;;;;;;4.01;92.22;97681.83;1687803;83;24318;-83
2022/02/18 07:23:19;;;;;;;;;;;;;;;4.06;92.20;97688.88;1685732;83;20213;-82
2022/02/18 07:25:45;;;;;;;;;;;;;;;4.08;92.17;97695.66;1683032;84;24184;-82
2022/02/18 07:28:12;;;;;;;;;;;;;;;4.11;92.13;97690.29;1685051;84;22582;-81
2022/02/18 07:30:39;;;;;;;;;;;;;;;4.15;92.12;97686.60;1678691;84;26243;-82
2022/02/18 07:33:06;;;;;;;;;;;;;;;4.21;92.06;97689.30;1681257;84;24434;-82
2022/02/18 07:35:33;;;;;;;;;;;;;;;4.27;92.04;97687.67;1690611;84;20216;-82
2022/02/18 07:38:02;;;;;;;;;;;;;;;4.32;92.01;97693.42;1685277;84;20361;-82
2022/02/18 07:40:28;;;;;;;;;;;;;;;4.38;91.92;97689.66;1679723;84;21959;-82
2022/02/18 07:42:55;;;;;;;;;;;;;;;4.44;91.78;97697.08;1688510;84;26048;-82
2022/02/18 07:45:22;;;;;;;;;;;;;;;4.48;91.65;97689.50;1680530;84;24551;-82
2022/02/18 07:47:55;;;;;;;;;;;;;;;4.53;91.53;97689.61;1679237;84;20280;-82
2022/02/18 07:50:21;;;;;;;;;;;;;;;4.61;91.44;97694.36;1676142;83;24761;-82
2022/02/18 07:52:47;;;;;;;;;;;;;;;4.68;91.33;97695.68;1685359;84;22110;-82
2022/02/18 07:55:13;;;;;;;;;;;;;;;4.76;91.17;97690.03;1678093;84;25976;-83
2022/02/18 07:57:40;;;;;;;;;;;;;;;4.84;90.98;97696.45;1684616;84;24597;-82
2022/02/18 08:00:07;;;;;;;;;;;;;;;4.92;90.75;97700.71;1689693;84;20207;-82
2022/02/18 08:02:34;;;;;;;;;;;;;;;4.99;90.54;97697.30;1680384;84;38662;-82
2022/02/18 08:05:00;;;;;;;;;;;;;;;5.01;90.29;97692.88;1683456;84;21984;-82
2022/02/18 08:07:26;;;;;;;;;;;;;;;5.02;89.99;97694.05;1683081;84;26008;-82
2022/02/18 08:09:52;;;;;;;;;;;;;;;5.03;89.65;97694.43;1682410;84;24486;-82
2022/02/18 08:12:18;;;;;;;;;;;;;;;5.08;89.28;97695.91;1679687;83;20308;-82
2022/02/18 08:14:44;;;;;;;;;;;;;;;5.17;89.09;97692.33;1677067;84;24536;-82
2022/02/18 08:17:11;;;;;;;;;;;;;;;5.27;88.96;97711.59;1679150;84;22049;-82
2022/02/18 08:19:37;;;;;;;;;;;;;;;5.32;88.73;97707.42;1681213;84;21017;-82
2022/02/18 08:22:06;;;;;;;;;;;;;;;5.36;88.43;97703.25;1680784;84;24426;-82
2022/02/18 08:24:32;;;;;;;;;;;;;;;5.35;88.02;97707.22;1690624;84;20240;-82
2022/02/18 08:27:01;;;;;;;;;;;;;;;5.40;87.65;97702.13;1678475;84;24461;-82
2022/02/18 08:29:27;;;;;;;;;;;;;;;5.46;87.37;97708.70;1673146;84;22872;-82
2022/02/18 08:31:54;;;;;;;;;;;;;;;5.52;87.09;97702.31;1674739;83;26016;-82
2022/02/18 08:34:20;;;;;;;;;;;;;;;5.53;86.77;97709.17;1684753;84;24451;-82
2022/02/18 08:36:46;;;;;;;;;;;;;;;5.54;86.43;97705.20;1678786;84;20479;-82
2022/02/18 08:39:12;;;;;;;;;;;;;;;5.57;86.10;97708.88;1685278;84;24688;-82
2022/02/18 08:41:39;;;;;;;;;;;;;;;5.63;85.85;97717.59;1674881;84;21932;-82
2022/02/18 08:44:05;;;;;;;;;;;;;;;5.67;85.60;97707.87;1685433;84;26081;-82
2022/02/18 08:46:31;;;;;;;;;;;;;;;5.70;85.24;97713.70;1683952;84;24442;-82
2022/02/18 08:48:58;;;;;;;;;;;;;;;5.75;84.86;97714.71;1680961;84;20248;-82
2022/02/18 08:51:24;;;;;;;;;;;;;;;5.82;84.72;97722.04;1690006;83;24613;-82
2022/02/18 08:53:51;;;;;;;;;;;;;;;5.93;84.61;97722.70;1684850;84;22010;-82
2022/02/18 08:56:18;;;;;;;;;;;;;;;6.00;84.44;97716.17;1679769;84;26238;-82
2022/02/18 08:58:45;;;;;;;;;;;;;;;6.07;84.18;97716.16;1676268;84;24703;-82
2022/02/18 09:01:11;;;;;;;;;;;;;;;6.16;84.02;97700.02;1682308;84;20449;-82
2022/02/18 09:03:38;;;;;;;;;;;;;;;6.22;83.71;97706.09;1677101;84;25322;-82
2022/02/18 09:06:04;;;;;;;;;;;;;;;6.26;83.40;97705.45;1683853;84;22293;-82
2022/02/18 09:08:32;;;;;;;;;;;;;;;6.32;83.09;97715.45;1687866;84;26030;-82
2022/02/18 09:10:59;;;;;;;;;;;;;;;6.38;82.79;97712.92;1683606;84;25399;-82
2022/02/18 09:13:26;;;;;;;;;;;;;;;6.40;82.47;97701.48;1680919;84;20220;-82
2022/02/18 09:15:53;;;;;;;;;;;;;;;6.45;82.06;97707.67;1685400;84;24607;-82
2022/02/18 09:18:19;;;;;;;;;;;;;;;6.50;81.77;97709.51;1677846;84;22057;-82
2022/02/18 09:20:47;;;;;;;;;;;;;;;6.55;81.47;97706.14;1681865;84;25975;-82
2022/02/18 09:23:14;;;;;;;;;;;;;;;6.56;80.98;97708.65;1685563;84;25362;-82
2022/02/18 09:25:41;;;;;;;;;;;;;;;6.62;80.68;97704.35;1684181;84;20250;-82
2022/02/18 09:28:07;;;;;;;;;;;;;;;6.60;80.23;97703.61;1691607;83;24627;-82
2022/02/18 09:30:37;;;;;;;;;;;;;;;6.63;79.85;97703.42;1684556;84;22043;-82
2022/02/18 09:33:03;;;;;;;;;;;;;;;6.67;79.57;97709.25;1683018;84;26036;-82
2022/02/18 09:35:29;;;;;;;;;;;;;;;6.70;79.32;97694.77;1681105;84;24586;-82
2022/02/18 09:37:56;;;;;;;;;;;;;;;6.74;79.07;97700.11;1684807;84;20298;-82
2022/02/18 09:40:22;;;;;;;;;;;;;;;6.80;78.88;97697.11;1685329;84;24624;-82
2022/02/18 09:42:49;;;;;;;;;;;;;;;6.86;78.65;97700.61;1681098;84;21909;-83
2022/02/18 09:45:17;;;;;;;;;;;;;;;6.93;78.45;97698.41;1672589;84;26091;-83
2022/02/18 09:47:46;;;;;;;;;;;;;;;7.04;78.38;97701.13;1684037;84;24489;-83
2022/02/18 09:50:12;;;;;;;;;;;;;;;7.11;78.26;97698.48;1676959;84;20289;-82
2022/02/18 09:52:38;;;;;;;;;;;;;;;7.16;77.99;97700.30;1680138;84;24589;-82
2022/02/18 09:55:04;;;;;;;;;;;;;;;7.18;77.62;97699.74;1680223;84;22068;-83
2022/02/18 09:57:32;;;;;;;;;;;;;;;7.26;77.46;97700.04;1688586;84;25946;-82
2022/02/18 09:59:58;;;;;;;;;;;;;;;7.32;77.26;97706.13;1687019;84;24450;-82
2022/02/18 10:02:25;;;;;;;;;;;;;;;7.37;77.03;97698.00;1680991;84;20203;-83
2022/02/18 10:04:51;;;;;;;;;;;;;;;7.46;76.89;97699.53;1686718;84;24546;-83
2022/02/18 10:07:17;;;;;;;;;;;;;;;7.51;76.59;97696.59;1682744;84;22183;-82
2022/02/18 10:09:45;;;;;;;;;;;;;;;7.51;76.08;97692.70;1683500;83;26039;-83
2022/02/18 10:12:12;;;;;;;;;;;;;;;7.54;75.72;97690.70;1682405;83;24516;-83
2022/02/18 10:14:58;;;;;;;;;;;;;;;7.58;75.38;97690.84;1689894;84;20493;-83
2022/02/18 10:17:27;;;;;;;;;;;;;;;7.68;75.17;97679.80;1677533;84;24574;-83
2022/02/18 10:19:55;;;;;;;;;;;;;;;7.75;74.97;97675.81;1682670;83;22090;-83
2022/02/18 10:22:25;;;;;;;;;;;;;;;7.86;74.85;97675.87;1679913;84;26088;-83
2022/02/18 10:24:52;;;;;;;;;;;;;;;7.92;74.59;97669.77;1689722;84;24441;-82
2022/02/18 10:27:23;;;;;;;;;;;;;;;7.96;74.29;97667.30;1682426;83;20216;-82
2022/02/18 10:29:57;;;;;;;;;;;;;;;7.99;73.96;97661.89;1683712;84;24634;-83
2022/02/18 10:32:23;;;;;;;;;;;;;;;8.04;73.65;97667.23;1688058;83;22156;-83
2022/02/18 10:34:52;;;;;;;;;;;;;;;8.05;73.19;97660.62;1684075;84;26061;-83
2022/02/18 10:37:20;;;;;;;;;;;;;;;8.03;72.76;97652.06;1685895;83;24384;-83
2022/02/18 10:39:46;;;;;;;;;;;;;;;8.07;72.45;97658.74;1684259;84;20336;-83
2022/02/18 10:42:14;;;;;;;;;;;;;;;8.09;72.13;97663.82;1681854;84;24765;-82
2022/02/18 10:44:40;;;;;;;;;;;;;;;8.15;71.95;97656.87;1687487;84;21978;-82
2022/02/18 10:47:08;;;;;;;;;;;;;;;8.21;71.86;97644.70;1690091;84;26300;-83
2022/02/18 10:49:38;;;;;;;;;;;;;;;8.18;71.51;97649.64;1655211;85;24485;-83
2022/02/18 10:52:11;;;;;;;;;;;;;;;8.21;71.18;97639.48;1678975;84;20238;-82
2022/02/18 10:54:37;;;;;;;;;;;;;;;8.25;70.92;97644.36;1658233;84;24643;-82
2022/02/18 10:57:21;;;;;;;;;;;;;;;8.27;70.66;97642.48;1660865;84;22004;-82
2022/02/18 10:59:47;;;;;;;;;;;;;;;8.28;70.38;97638.11;1654157;86;25560;-84
2022/02/18 11:02:14;;;;;;;;;;;;;;;8.31;70.04;97635.29;1641917;86;24416;-83
2022/02/18 11:04:40;;;;;;;;;;;;;;;8.36;69.79;97624.88;1686148;84;20245;-83
2022/02/18 11:07:14;;;;;;;;;;;;;;;8.42;69.59;97622.30;1658721;85;24619;-83
2022/02/18 11:09:41;;;;;;;;;;;;;;;8.51;69.52;97622.11;1655140;86;22164;-83
2022/02/18 11:12:09;;;;;;;;;;;;;;;8.57;69.31;97609.41;1656601;84;25851;-83
2022/02/18 11:14:36;;;;;;;;;;;;;;;8.68;69.20;97615.96;1692538;84;24513;-83
2022/02/18 11:17:02;;;;;;;;;;;;;;;8.80;69.16;97616.81;1664420;86;20308;-83
2022/02/18 11:19:28;;;;;;;;;;;;;;;8.91;69.14;97619.45;1682339;84;24566;-83
2022/02/18 11:21:55;;;;;;;;;;;;;;;8.95;69.00;97618.26;1716548;83;21842;-83
2022/02/18 11:24:21;;;;;;;;;;;;;;;8.98;68.70;97618.04;1652166;85;26024;-82
2022/02/18 11:26:48;;;;;;;;;;;;;;;9.03;68.48;97615.08;1658600;85;24507;-83
2022/02/18 11:29:14;;;;;;;;;;;;;;;9.11;68.34;97592.64;1658110;86;20267;-83
2022/02/18 11:31:45;;;;;;;;;;;;;;;9.13;68.00;97605.11;1687435;84;24542;-82
2022/02/18 11:34:25;;;;;;;;;;;;;;;9.18;67.82;97603.45;1685127;84;22123;-83
2022/02/18 11:37:10;;;;;;;;;;;;;;;9.21;67.52;97596.70;1657234;86;25987;-82
2022/02/18 11:39:58;;;;;;;;;;;;;;;9.23;67.23;97593.00;1663773;85;24548;-83
2022/02/18 11:42:26;;;;;;;;;;;;;;;9.26;66.86;97571.53;1682202;85;20264;-83
2022/02/18 11:44:55;;;;;;;;;;;;;;;9.32;66.65;97573.20;1680474;84;20454;-82
2022/02/18 11:47:22;;;;;;;;;;;;;;;9.36;66.48;97579.00;1689563;84;22108;-82
2022/02/18 11:49:50;;;;;;;;;;;;;;;9.34;66.24;97577.80;1682319;84;25992;-82
2022/02/18 11:52:18;;;;;;;;;;;;;;;9.30;65.91;97569.86;1659600;85;24583;-82
2022/02/18 11:54:44;;;;;;;;;;;;;;;9.26;65.46;97567.15;1676434;84;20243;-83
2022/02/18 11:57:12;;;;;;;;;;;;;;;9.25;65.11;97568.09;1671046;84;24534;-82
2022/02/18 11:59:45;;;;;;;;;;;;;;;9.30;64.98;97562.50;1681706;84;21966;-83
2022/02/18 12:02:12;;;;;;;;;;;;;;;9.36;64.91;97555.50;1688963;84;26008;-83
2022/02/18 12:04:40;;;;;;;;;;;;;;;9.45;64.93;97556.90;1678903;83;21563;-83
2022/02/18 12:07:20;;;;;;;;;;;;;;;9.51;64.85;97555.59;1677268;84;20248;-83
2022/02/18 12:09:51;;;;;;;;;;;;;;;9.58;64.76;97547.63;1687790;83;24602;-82
2022/02/18 12:12:21;;;;;;;;;;;;;;;9.65;64.76;97537.84;1682292;84;22928;-82
2022/02/18 12:14:48;;;;;;;;;;;;;;;9.70;64.61;97535.36;1667139;85;26025;-82
2022/02/18 12:17:14;;;;;;;;;;;;;;;9.69;64.30;97524.55;1672980;85;24546;-82
2022/02/18 12:19:41;;;;;;;;;;;;;;;9.65;63.97;97522.17;1662909;85;20185;-82
2022/02/18 12:22:07;;;;;;;;;;;;;;;9.61;63.59;97522.55;1666322;84;24706;-82
2022/02/18 12:24:35;;;;;;;;;;;;;;;9.54;63.21;97522.71;1665009;85;22189;-82
2022/02/18 12:27:21;;;;;;;;;;;;;;;9.45;62.84;97517.73;1668019;85;26104;-82
2022/02/18 12:29:47;;;;;;;;;;;;;;;9.45;62.63;97512.50;1662990;85;25069;-82
2022/02/18 12:32:16;;;;;;;;;;;;;;;9.42;62.39;97508.84;1656662;85;20309;-82
2022/02/18 12:34:42;;;;;;;;;;;;;;;9.42;62.22;97503.63;1693003;84;24545;-82
2022/02/18 12:37:09;;;;;;;;;;;;;;;9.44;62.08;97506.92;1697092;84;21932;-82
2022/02/18 12:39:40;;;;;;;;;;;;;;;9.44;61.89;97499.09;1691886;84;26000;-82
2022/02/18 12:42:07;;;;;;;;;;;;;;;9.44;61.73;97495.17;1690497;84;25170;-82
2022/02/18 12:44:33;;;;;;;;;;;;;;;9.47;61.65;97492.80;1687772;83;20318;-82
2022/02/18 12:47:00;;;;;;;;;;;;;;;9.48;61.54;97478.33;1686788;84;24633;-82
2022/02/18 12:49:39;;;;;;;;;;;;;;;9.52;61.38;97477.59;1685763;84;21973;-82
2022/02/18 12:52:06;;;;;;;;;;;;;;;9.56;61.28;97475.91;1690588;84;26058;-81
2022/02/18 12:54:51;;;;;;;;;;;;;;;9.69;61.30;97477.53;1688409;84;24522;-82
2022/02/18 12:57:19;;;;;;;;;;;;;;;9.78;61.28;97467.62;1683491;83;20484;-82